sensor_id;sensor_type;location;lat;lon;timestamp;P1;durP1;ratioP1;P2;durP2;ratioP2
45466;SDS011;31212;49.734;8.490;2023-06-24T00:01:30;8.07;;;3.22;;
45466;SDS011;31212;49.734;8.490;2023-06-24T00:03:58;9.68;;;4.75;;
45466;SDS011;31212;49.734;8.490;2023-06-24T00:06:25;8.57;;;3.90;;
45466;SDS011;31212;49.734;8.490;2023-06-24T00:08:52;7.30;;;3.45;;
45466;SDS011;31212;49.734;8.490;2023-06-24T00:11:22;6.60;;;4.50;;
45466;SDS011;31212;49.734;8.490;2023-06-24T00:13:49;5.90;;;3.80;;
45466;SDS011;31212;49.734;8.490;2023-06-24T00:16:16;6.35;;;3.92;;
45466;SDS011;31212;49.734;8.490;2023-06-24T00:18:42;5.20;;;3.10;;
45466;SDS011;31212;49.734;8.490;2023-06-24T00:21:09;6.38;;;4.10;;
45466;SDS011;31212;49.734;8.490;2023-06-24T00:23:35;8.15;;;4.00;;
45466;SDS011;31212;49.734;8.490;2023-06-24T00:26:02;10.55;;;4.28;;
45466;SDS011;31212;49.734;8.490;2023-06-24T00:28:29;8.80;;;3.25;;
45466;SDS011;31212;49.734;8.490;2023-06-24T00:30:57;5.70;;;3.35;;
45466;SDS011;31212;49.734;8.490;2023-06-24T00:33:24;8.02;;;3.90;;
45466;SDS011;31212;49.734;8.490;2023-06-24T00:35:50;7.82;;;4.38;;
45466;SDS011;31212;49.734;8.490;2023-06-24T00:38:17;7.05;;;4.85;;
45466;SDS011;31212;49.734;8.490;2023-06-24T00:40:43;6.63;;;4.40;;
45466;SDS011;31212;49.734;8.490;2023-06-24T00:43:11;9.85;;;4.68;;
45466;SDS011;31212;49.734;8.490;2023-06-24T00:45:38;5.70;;;4.20;;
45466;SDS011;31212;49.734;8.490;2023-06-24T00:48:07;7.40;;;4.70;;
45466;SDS011;31212;49.734;8.490;2023-06-24T00:50:34;9.35;;;4.60;;
45466;SDS011;31212;49.734;8.490;2023-06-24T00:53:02;7.50;;;4.70;;
45466;SDS011;31212;49.734;8.490;2023-06-24T00:55:28;6.65;;;4.65;;
45466;SDS011;31212;49.734;8.490;2023-06-24T00:57:55;18.48;;;5.13;;
45466;SDS011;31212;49.734;8.490;2023-06-24T01:00:22;6.13;;;3.95;;
45466;SDS011;31212;49.734;8.490;2023-06-24T01:02:49;8.00;;;5.18;;
45466;SDS011;31212;49.734;8.490;2023-06-24T01:05:17;8.10;;;4.28;;
45466;SDS011;31212;49.734;8.490;2023-06-24T01:07:48;12.48;;;3.75;;
45466;SDS011;31212;49.734;8.490;2023-06-24T01:10:20;9.73;;;4.18;;
45466;SDS011;31212;49.734;8.490;2023-06-24T01:12:48;8.00;;;3.97;;
45466;SDS011;31212;49.734;8.490;2023-06-24T01:15:15;11.05;;;4.75;;
45466;SDS011;31212;49.734;8.490;2023-06-24T01:17:47;9.48;;;4.40;;
45466;SDS011;31212;49.734;8.490;2023-06-24T01:20:22;8.68;;;4.00;;
45466;SDS011;31212;49.734;8.490;2023-06-24T01:22:59;10.15;;;4.45;;
45466;SDS011;31212;49.734;8.490;2023-06-24T01:25:50;7.88;;;4.18;;
45466;SDS011;31212;49.734;8.490;2023-06-24T01:28:41;5.45;;;4.05;;
45466;SDS011;31212;49.734;8.490;2023-06-24T01:31:32;8.60;;;3.55;;
45466;SDS011;31212;49.734;8.490;2023-06-24T01:34:04;7.60;;;4.78;;
45466;SDS011;31212;49.734;8.490;2023-06-24T01:36:38;8.45;;;4.45;;
45466;SDS011;31212;49.734;8.490;2023-06-24T01:39:09;13.00;;;4.28;;
45466;SDS011;31212;49.734;8.490;2023-06-24T01:41:40;12.73;;;5.32;;
45466;SDS011;31212;49.734;8.490;2023-06-24T01:44:09;10.75;;;5.68;;
45466;SDS011;31212;49.734;8.490;2023-06-24T01:46:42;9.45;;;4.47;;
45466;SDS011;31212;49.734;8.490;2023-06-24T01:49:13;5.20;;;3.80;;
45466;SDS011;31212;49.734;8.490;2023-06-24T01:51:41;8.57;;;4.65;;
45466;SDS011;31212;49.734;8.490;2023-06-24T01:54:14;6.45;;;4.60;;
45466;SDS011;31212;49.734;8.490;2023-06-24T01:56:45;6.88;;;5.03;;
45466;SDS011;31212;49.734;8.490;2023-06-24T01:59:14;6.20;;;4.25;;
45466;SDS011;31212;49.734;8.490;2023-06-24T02:01:44;9.98;;;4.85;;
45466;SDS011;31212;49.734;8.490;2023-06-24T02:04:12;14.65;;;5.75;;
45466;SDS011;31212;49.734;8.490;2023-06-24T02:06:39;12.35;;;4.80;;
45466;SDS011;31212;49.734;8.490;2023-06-24T02:09:08;9.88;;;4.80;;
45466;SDS011;31212;49.734;8.490;2023-06-24T02:11:36;7.47;;;5.35;;
45466;SDS011;31212;49.734;8.490;2023-06-24T02:14:04;9.00;;;5.05;;
45466;SDS011;31212;49.734;8.490;2023-06-24T02:16:31;8.35;;;5.32;;
45466;SDS011;31212;49.734;8.490;2023-06-24T02:19:02;12.55;;;4.90;;
45466;SDS011;31212;49.734;8.490;2023-06-24T02:21:30;9.23;;;5.05;;
45466;SDS011;31212;49.734;8.490;2023-06-24T02:23:58;7.30;;;4.82;;
45466;SDS011;31212;49.734;8.490;2023-06-24T02:26:25;8.98;;;5.07;;
45466;SDS011;31212;49.734;8.490;2023-06-24T02:28:53;7.75;;;5.47;;
45466;SDS011;31212;49.734;8.490;2023-06-24T02:31:20;6.82;;;5.00;;
45466;SDS011;31212;49.734;8.490;2023-06-24T02:33:47;5.78;;;3.90;;
45466;SDS011;31212;49.734;8.490;2023-06-24T02:36:15;8.43;;;4.50;;
45466;SDS011;31212;49.734;8.490;2023-06-24T02:38:42;8.10;;;4.80;;
45466;SDS011;31212;49.734;8.490;2023-06-24T02:41:09;6.43;;;4.95;;
45466;SDS011;31212;49.734;8.490;2023-06-24T02:43:35;6.50;;;3.88;;
45466;SDS011;31212;49.734;8.490;2023-06-24T02:46:02;8.60;;;4.15;;
45466;SDS011;31212;49.734;8.490;2023-06-24T02:48:31;5.80;;;3.85;;
45466;SDS011;31212;49.734;8.490;2023-06-24T02:51:01;8.45;;;4.40;;
45466;SDS011;31212;49.734;8.490;2023-06-24T02:53:30;5.25;;;3.75;;
45466;SDS011;31212;49.734;8.490;2023-06-24T02:55:58;4.63;;;3.67;;
45466;SDS011;31212;49.734;8.490;2023-06-24T02:58:25;5.80;;;4.10;;
45466;SDS011;31212;49.734;8.490;2023-06-24T03:01:02;6.35;;;4.28;;
45466;SDS011;31212;49.734;8.490;2023-06-24T03:03:36;10.25;;;4.82;;
45466;SDS011;31212;49.734;8.490;2023-06-24T03:06:09;7.07;;;4.32;;
45466;SDS011;31212;49.734;8.490;2023-06-24T03:08:39;7.28;;;4.30;;
45466;SDS011;31212;49.734;8.490;2023-06-24T03:11:06;8.98;;;4.85;;
45466;SDS011;31212;49.734;8.490;2023-06-24T03:13:33;10.60;;;5.18;;
45466;SDS011;31212;49.734;8.490;2023-06-24T03:16:06;11.13;;;5.45;;
45466;SDS011;31212;49.734;8.490;2023-06-24T03:18:41;6.93;;;4.85;;
45466;SDS011;31212;49.734;8.490;2023-06-24T03:21:08;6.70;;;3.88;;
45466;SDS011;31212;49.734;8.490;2023-06-24T03:23:35;13.52;;;5.60;;
45466;SDS011;31212;49.734;8.490;2023-06-24T03:26:03;9.43;;;4.47;;
45466;SDS011;31212;49.734;8.490;2023-06-24T03:28:30;10.73;;;4.80;;
45466;SDS011;31212;49.734;8.490;2023-06-24T03:31:07;6.63;;;4.15;;
45466;SDS011;31212;49.734;8.490;2023-06-24T03:33:34;7.20;;;4.75;;
45466;SDS011;31212;49.734;8.490;2023-06-24T03:36:00;7.90;;;4.97;;
45466;SDS011;31212;49.734;8.490;2023-06-24T03:38:30;8.32;;;4.60;;
45466;SDS011;31212;49.734;8.490;2023-06-24T03:40:57;8.02;;;4.68;;
45466;SDS011;31212;49.734;8.490;2023-06-24T03:43:25;6.85;;;4.57;;
45466;SDS011;31212;49.734;8.490;2023-06-24T03:45:51;6.07;;;4.28;;
45466;SDS011;31212;49.734;8.490;2023-06-24T03:48:19;5.82;;;4.22;;
45466;SDS011;31212;49.734;8.490;2023-06-24T03:50:45;8.73;;;4.47;;
45466;SDS011;31212;49.734;8.490;2023-06-24T03:53:12;14.90;;;4.72;;
45466;SDS011;31212;49.734;8.490;2023-06-24T03:55:38;6.45;;;4.57;;
45466;SDS011;31212;49.734;8.490;2023-06-24T03:58:05;7.43;;;5.00;;
45466;SDS011;31212;49.734;8.490;2023-06-24T04:00:33;7.72;;;4.00;;
45466;SDS011;31212;49.734;8.490;2023-06-24T04:03:01;7.50;;;4.70;;
45466;SDS011;31212;49.734;8.490;2023-06-24T04:05:27;6.68;;;4.70;;
45466;SDS011;31212;49.734;8.490;2023-06-24T04:07:54;8.15;;;4.53;;
45466;SDS011;31212;49.734;8.490;2023-06-24T04:10:21;9.32;;;5.38;;
45466;SDS011;31212;49.734;8.490;2023-06-24T04:12:47;8.75;;;5.53;;
45466;SDS011;31212;49.734;8.490;2023-06-24T04:15:14;9.13;;;4.95;;
45466;SDS011;31212;49.734;8.490;2023-06-24T04:17:42;11.93;;;5.10;;
45466;SDS011;31212;49.734;8.490;2023-06-24T04:20:09;15.43;;;4.93;;
45466;SDS011;31212;49.734;8.490;2023-06-24T04:22:36;9.43;;;5.50;;
45466;SDS011;31212;49.734;8.490;2023-06-24T04:25:03;7.20;;;4.82;;
45466;SDS011;31212;49.734;8.490;2023-06-24T04:27:31;8.75;;;4.50;;
45466;SDS011;31212;49.734;8.490;2023-06-24T04:29:58;7.78;;;4.53;;
45466;SDS011;31212;49.734;8.490;2023-06-24T04:32:24;7.72;;;4.95;;
45466;SDS011;31212;49.734;8.490;2023-06-24T04:34:52;14.82;;;5.07;;
45466;SDS011;31212;49.734;8.490;2023-06-24T04:37:19;12.88;;;5.03;;
45466;SDS011;31212;49.734;8.490;2023-06-24T04:39:47;8.20;;;5.28;;
45466;SDS011;31212;49.734;8.490;2023-06-24T04:42:14;13.27;;;5.35;;
45466;SDS011;31212;49.734;8.490;2023-06-24T04:44:40;7.38;;;5.15;;
45466;SDS011;31212;49.734;8.490;2023-06-24T04:47:07;7.10;;;4.70;;
45466;SDS011;31212;49.734;8.490;2023-06-24T04:49:33;9.70;;;6.38;;
45466;SDS011;31212;49.734;8.490;2023-06-24T04:52:01;13.43;;;8.20;;
45466;SDS011;31212;49.734;8.490;2023-06-24T04:54:28;10.13;;;7.32;;
45466;SDS011;31212;49.734;8.490;2023-06-24T04:56:54;10.90;;;7.97;;
45466;SDS011;31212;49.734;8.490;2023-06-24T04:59:22;10.93;;;8.02;;
45466;SDS011;31212;49.734;8.490;2023-06-24T05:01:48;15.50;;;7.95;;
45466;SDS011;31212;49.734;8.490;2023-06-24T05:04:15;13.35;;;7.80;;
45466;SDS011;31212;49.734;8.490;2023-06-24T05:06:41;11.23;;;6.72;;
45466;SDS011;31212;49.734;8.490;2023-06-24T05:09:09;11.38;;;7.80;;
45466;SDS011;31212;49.734;8.490;2023-06-24T05:11:38;10.50;;;7.22;;
45466;SDS011;31212;49.734;8.490;2023-06-24T05:14:05;12.18;;;8.27;;
45466;SDS011;31212;49.734;8.490;2023-06-24T05:16:31;14.32;;;8.52;;
45466;SDS011;31212;49.734;8.490;2023-06-24T05:18:57;16.60;;;9.68;;
45466;SDS011;31212;49.734;8.490;2023-06-24T05:21:24;17.27;;;10.05;;
45466;SDS011;31212;49.734;8.490;2023-06-24T05:23:50;15.93;;;8.55;;
45466;SDS011;31212;49.734;8.490;2023-06-24T05:26:18;22.58;;;10.60;;
45466;SDS011;31212;49.734;8.490;2023-06-24T05:28:45;19.45;;;11.70;;
45466;SDS011;31212;49.734;8.490;2023-06-24T05:31:11;18.70;;;10.50;;
45466;SDS011;31212;49.734;8.490;2023-06-24T05:33:38;15.80;;;10.07;;
45466;SDS011;31212;49.734;8.490;2023-06-24T05:36:04;13.57;;;7.10;;
45466;SDS011;31212;49.734;8.490;2023-06-24T05:38:31;10.52;;;7.10;;
45466;SDS011;31212;49.734;8.490;2023-06-24T05:40:58;11.98;;;6.57;;
45466;SDS011;31212;49.734;8.490;2023-06-24T05:43:27;12.27;;;7.55;;
45466;SDS011;31212;49.734;8.490;2023-06-24T05:45:53;12.32;;;7.70;;
45466;SDS011;31212;49.734;8.490;2023-06-24T05:48:20;12.60;;;6.30;;
45466;SDS011;31212;49.734;8.490;2023-06-24T05:50:46;9.57;;;5.85;;
45466;SDS011;31212;49.734;8.490;2023-06-24T05:53:13;10.13;;;5.45;;
45466;SDS011;31212;49.734;8.490;2023-06-24T05:55:39;10.63;;;5.50;;
45466;SDS011;31212;49.734;8.490;2023-06-24T05:58:06;9.65;;;5.05;;
45466;SDS011;31212;49.734;8.490;2023-06-24T06:00:33;8.15;;;5.75;;
45466;SDS011;31212;49.734;8.490;2023-06-24T06:03:00;8.50;;;4.57;;
45466;SDS011;31212;49.734;8.490;2023-06-24T06:05:26;12.15;;;5.72;;
45466;SDS011;31212;49.734;8.490;2023-06-24T06:07:53;7.63;;;4.72;;
45466;SDS011;31212;49.734;8.490;2023-06-24T06:10:19;6.72;;;4.30;;
45466;SDS011;31212;49.734;8.490;2023-06-24T06:12:46;7.85;;;4.68;;
45466;SDS011;31212;49.734;8.490;2023-06-24T06:15:13;6.90;;;4.90;;
45466;SDS011;31212;49.734;8.490;2023-06-24T06:17:40;10.18;;;5.57;;
45466;SDS011;31212;49.734;8.490;2023-06-24T06:20:07;9.25;;;4.97;;
45466;SDS011;31212;49.734;8.490;2023-06-24T06:22:34;8.15;;;4.47;;
45466;SDS011;31212;49.734;8.490;2023-06-24T06:25:03;7.57;;;4.50;;
45466;SDS011;31212;49.734;8.490;2023-06-24T06:27:30;8.13;;;4.70;;
45466;SDS011;31212;49.734;8.490;2023-06-24T06:29:57;13.63;;;5.55;;
45466;SDS011;31212;49.734;8.490;2023-06-24T06:32:23;6.50;;;4.43;;
45466;SDS011;31212;49.734;8.490;2023-06-24T06:34:51;15.23;;;4.15;;
45466;SDS011;31212;49.734;8.490;2023-06-24T06:37:18;10.57;;;4.57;;
45466;SDS011;31212;49.734;8.490;2023-06-24T06:39:44;11.43;;;4.78;;
45466;SDS011;31212;49.734;8.490;2023-06-24T06:42:10;8.45;;;4.53;;
45466;SDS011;31212;49.734;8.490;2023-06-24T06:44:37;5.80;;;4.15;;
45466;SDS011;31212;49.734;8.490;2023-06-24T06:47:04;9.20;;;4.95;;
45466;SDS011;31212;49.734;8.490;2023-06-24T06:49:31;8.23;;;4.30;;
45466;SDS011;31212;49.734;8.490;2023-06-24T06:51:58;7.28;;;4.00;;
45466;SDS011;31212;49.734;8.490;2023-06-24T06:54:25;5.40;;;3.72;;
45466;SDS011;31212;49.734;8.490;2023-06-24T06:56:51;6.55;;;3.88;;
45466;SDS011;31212;49.734;8.490;2023-06-24T06:59:18;5.95;;;3.90;;
45466;SDS011;31212;49.734;8.490;2023-06-24T07:01:44;9.75;;;4.25;;
45466;SDS011;31212;49.734;8.490;2023-06-24T07:04:10;5.82;;;3.55;;
45466;SDS011;31212;49.734;8.490;2023-06-24T07:06:37;7.57;;;3.55;;
45466;SDS011;31212;49.734;8.490;2023-06-24T07:09:05;11.40;;;4.22;;
45466;SDS011;31212;49.734;8.490;2023-06-24T07:11:32;5.57;;;3.42;;
45466;SDS011;31212;49.734;8.490;2023-06-24T07:13:59;7.85;;;3.80;;
45466;SDS011;31212;49.734;8.490;2023-06-24T07:16:25;5.32;;;2.97;;
45466;SDS011;31212;49.734;8.490;2023-06-24T07:18:52;4.28;;;2.85;;
45466;SDS011;31212;49.734;8.490;2023-06-24T07:21:18;4.72;;;3.05;;
45466;SDS011;31212;49.734;8.490;2023-06-24T07:23:45;7.30;;;3.35;;
45466;SDS011;31212;49.734;8.490;2023-06-24T07:26:13;4.47;;;2.95;;
45466;SDS011;31212;49.734;8.490;2023-06-24T07:28:39;4.22;;;2.88;;
45466;SDS011;31212;49.734;8.490;2023-06-24T07:31:06;5.28;;;3.38;;
45466;SDS011;31212;49.734;8.490;2023-06-24T07:33:32;10.40;;;3.95;;
45466;SDS011;31212;49.734;8.490;2023-06-24T07:36:00;3.38;;;2.63;;
45466;SDS011;31212;49.734;8.490;2023-06-24T07:38:27;4.88;;;2.97;;
45466;SDS011;31212;49.734;8.490;2023-06-24T07:40:55;6.03;;;2.72;;
45466;SDS011;31212;49.734;8.490;2023-06-24T07:43:23;5.72;;;3.13;;
45466;SDS011;31212;49.734;8.490;2023-06-24T07:45:49;6.32;;;3.10;;
45466;SDS011;31212;49.734;8.490;2023-06-24T07:48:16;8.20;;;3.75;;
45466;SDS011;31212;49.734;8.490;2023-06-24T07:50:42;8.32;;;2.92;;
45466;SDS011;31212;49.734;8.490;2023-06-24T07:53:09;6.70;;;2.92;;
45466;SDS011;31212;49.734;8.490;2023-06-24T07:55:35;3.97;;;2.53;;
45466;SDS011;31212;49.734;8.490;2023-06-24T07:58:01;3.90;;;2.88;;
45466;SDS011;31212;49.734;8.490;2023-06-24T08:00:30;3.75;;;3.08;;
45466;SDS011;31212;49.734;8.490;2023-06-24T08:02:56;8.95;;;3.55;;
45466;SDS011;31212;49.734;8.490;2023-06-24T08:05:23;4.38;;;3.15;;
45466;SDS011;31212;49.734;8.490;2023-06-24T08:07:50;3.83;;;2.65;;
45466;SDS011;31212;49.734;8.490;2023-06-24T08:10:17;4.60;;;3.00;;
45466;SDS011;31212;49.734;8.490;2023-06-24T08:12:44;3.53;;;2.55;;
45466;SDS011;31212;49.734;8.490;2023-06-24T08:15:10;4.68;;;2.53;;
45466;SDS011;31212;49.734;8.490;2023-06-24T08:17:38;3.95;;;2.75;;
45466;SDS011;31212;49.734;8.490;2023-06-24T08:20:05;7.03;;;3.15;;
45466;SDS011;31212;49.734;8.490;2023-06-24T08:22:32;3.53;;;2.50;;
45466;SDS011;31212;49.734;8.490;2023-06-24T08:24:58;4.13;;;2.90;;
45466;SDS011;31212;49.734;8.490;2023-06-24T08:27:25;4.05;;;2.22;;
45466;SDS011;31212;49.734;8.490;2023-06-24T08:29:52;6.45;;;2.78;;
45466;SDS011;31212;49.734;8.490;2023-06-24T08:32:18;3.33;;;2.58;;
45466;SDS011;31212;49.734;8.490;2023-06-24T08:34:46;4.75;;;2.83;;
45466;SDS011;31212;49.734;8.490;2023-06-24T08:37:12;5.35;;;2.92;;
45466;SDS011;31212;49.734;8.490;2023-06-24T08:39:39;4.50;;;3.15;;
45466;SDS011;31212;49.734;8.490;2023-06-24T08:42:05;4.13;;;2.72;;
45466;SDS011;31212;49.734;8.490;2023-06-24T08:44:32;5.93;;;3.50;;
45466;SDS011;31212;49.734;8.490;2023-06-24T08:46:58;6.32;;;2.88;;
45466;SDS011;31212;49.734;8.490;2023-06-24T08:49:27;5.20;;;2.78;;
45466;SDS011;31212;49.734;8.490;2023-06-24T08:51:58;5.13;;;2.88;;
45466;SDS011;31212;49.734;8.490;2023-06-24T08:54:26;2.95;;;1.90;;
45466;SDS011;31212;49.734;8.490;2023-06-24T08:56:54;3.88;;;2.70;;
45466;SDS011;31212;49.734;8.490;2023-06-24T08:59:21;3.92;;;2.53;;
45466;SDS011;31212;49.734;8.490;2023-06-24T09:01:47;3.92;;;2.47;;
45466;SDS011;31212;49.734;8.490;2023-06-24T09:04:15;3.05;;;2.20;;
45466;SDS011;31212;49.734;8.490;2023-06-24T09:06:42;5.32;;;2.70;;
45466;SDS011;31212;49.734;8.490;2023-06-24T09:09:18;4.20;;;2.42;;
45466;SDS011;31212;49.734;8.490;2023-06-24T09:11:50;5.00;;;2.28;;
45466;SDS011;31212;49.734;8.490;2023-06-24T09:14:18;4.05;;;2.33;;
45466;SDS011;31212;49.734;8.490;2023-06-24T09:16:50;2.92;;;2.20;;
45466;SDS011;31212;49.734;8.490;2023-06-24T09:19:19;3.97;;;3.03;;
45466;SDS011;31212;49.734;8.490;2023-06-24T09:21:46;2.78;;;2.30;;
45466;SDS011;31212;49.734;8.490;2023-06-24T09:24:13;4.05;;;2.50;;
45466;SDS011;31212;49.734;8.490;2023-06-24T09:26:41;3.47;;;2.65;;
45466;SDS011;31212;49.734;8.490;2023-06-24T09:29:08;3.47;;;2.30;;
45466;SDS011;31212;49.734;8.490;2023-06-24T09:31:35;4.22;;;2.30;;
45466;SDS011;31212;49.734;8.490;2023-06-24T09:34:01;3.20;;;2.20;;
45466;SDS011;31212;49.734;8.490;2023-06-24T09:36:28;4.25;;;2.60;;
45466;SDS011;31212;49.734;8.490;2023-06-24T09:38:54;3.65;;;2.28;;
45466;SDS011;31212;49.734;8.490;2023-06-24T09:41:22;6.15;;;2.60;;
45466;SDS011;31212;49.734;8.490;2023-06-24T09:43:51;5.13;;;3.13;;
45466;SDS011;31212;49.734;8.490;2023-06-24T09:46:18;4.40;;;2.75;;
45466;SDS011;31212;49.734;8.490;2023-06-24T09:48:45;5.10;;;3.10;;
45466;SDS011;31212;49.734;8.490;2023-06-24T09:51:11;9.80;;;2.90;;
45466;SDS011;31212;49.734;8.490;2023-06-24T09:53:38;3.70;;;2.72;;
45466;SDS011;31212;49.734;8.490;2023-06-24T09:56:05;5.97;;;2.65;;
45466;SDS011;31212;49.734;8.490;2023-06-24T09:58:34;5.47;;;2.58;;
45466;SDS011;31212;49.734;8.490;2023-06-24T10:01:04;3.15;;;2.30;;
45466;SDS011;31212;49.734;8.490;2023-06-24T10:03:32;3.05;;;2.17;;
45466;SDS011;31212;49.734;8.490;2023-06-24T10:06:01;4.95;;;2.72;;
45466;SDS011;31212;49.734;8.490;2023-06-24T10:08:29;3.67;;;2.75;;
45466;SDS011;31212;49.734;8.490;2023-06-24T10:10:56;3.38;;;2.20;;
45466;SDS011;31212;49.734;8.490;2023-06-24T10:13:23;3.60;;;2.15;;
45466;SDS011;31212;49.734;8.490;2023-06-24T10:15:51;4.97;;;2.72;;
45466;SDS011;31212;49.734;8.490;2023-06-24T10:18:35;4.65;;;2.40;;
45466;SDS011;31212;49.734;8.490;2023-06-24T10:21:02;6.18;;;4.05;;
45466;SDS011;31212;49.734;8.490;2023-06-24T10:23:39;4.80;;;2.65;;
45466;SDS011;31212;49.734;8.490;2023-06-24T10:26:07;7.72;;;4.07;;
45466;SDS011;31212;49.734;8.490;2023-06-24T10:31:50;2.47;;;2.00;;
45466;SDS011;31212;49.734;8.490;2023-06-24T10:34:29;4.97;;;2.42;;
45466;SDS011;31212;49.734;8.490;2023-06-24T10:36:59;3.50;;;2.22;;
45466;SDS011;31212;49.734;8.490;2023-06-24T10:39:36;3.05;;;2.05;;
45466;SDS011;31212;49.734;8.490;2023-06-24T10:44:52;2.92;;;2.10;;
45466;SDS011;31212;49.734;8.490;2023-06-24T10:47:19;4.15;;;2.65;;
45466;SDS011;31212;49.734;8.490;2023-06-24T10:49:48;3.45;;;2.22;;
45466;SDS011;31212;49.734;8.490;2023-06-24T10:52:16;2.70;;;1.83;;
45466;SDS011;31212;49.734;8.490;2023-06-24T10:54:44;3.40;;;2.17;;
45466;SDS011;31212;49.734;8.490;2023-06-24T10:57:11;5.28;;;2.10;;
45466;SDS011;31212;49.734;8.490;2023-06-24T10:59:39;2.40;;;2.10;;
45466;SDS011;31212;49.734;8.490;2023-06-24T11:02:07;2.35;;;2.03;;
45466;SDS011;31212;49.734;8.490;2023-06-24T11:04:40;3.20;;;2.00;;
45466;SDS011;31212;49.734;8.490;2023-06-24T11:07:10;4.30;;;2.22;;
45466;SDS011;31212;49.734;8.490;2023-06-24T11:09:36;3.13;;;2.00;;
45466;SDS011;31212;49.734;8.490;2023-06-24T11:12:03;3.10;;;2.10;;
45466;SDS011;31212;49.734;8.490;2023-06-24T11:14:32;3.03;;;2.30;;
45466;SDS011;31212;49.734;8.490;2023-06-24T11:17:00;2.80;;;2.10;;
45466;SDS011;31212;49.734;8.490;2023-06-24T11:19:27;4.07;;;2.08;;
45466;SDS011;31212;49.734;8.490;2023-06-24T11:21:53;2.72;;;2.28;;
45466;SDS011;31212;49.734;8.490;2023-06-24T11:24:21;2.47;;;1.45;;
45466;SDS011;31212;49.734;8.490;2023-06-24T11:26:48;4.38;;;1.85;;
45466;SDS011;31212;49.734;8.490;2023-06-24T11:29:14;2.42;;;1.90;;
45466;SDS011;31212;49.734;8.490;2023-06-24T11:31:41;2.50;;;1.55;;
45466;SDS011;31212;49.734;8.490;2023-06-24T11:34:08;4.35;;;2.05;;
45466;SDS011;31212;49.734;8.490;2023-06-24T11:36:35;4.35;;;1.60;;
45466;SDS011;31212;49.734;8.490;2023-06-24T11:39:02;4.43;;;2.35;;
45466;SDS011;31212;49.734;8.490;2023-06-24T11:41:30;4.10;;;2.22;;
45466;SDS011;31212;49.734;8.490;2023-06-24T11:43:57;3.35;;;2.28;;
45466;SDS011;31212;49.734;8.490;2023-06-24T11:46:24;2.88;;;2.03;;
45466;SDS011;31212;49.734;8.490;2023-06-24T11:48:51;3.17;;;1.73;;
45466;SDS011;31212;49.734;8.490;2023-06-24T11:51:17;3.38;;;2.15;;
45466;SDS011;31212;49.734;8.490;2023-06-24T11:53:45;3.13;;;2.15;;
45466;SDS011;31212;49.734;8.490;2023-06-24T11:56:12;2.63;;;1.85;;
45466;SDS011;31212;49.734;8.490;2023-06-24T11:58:41;3.40;;;1.92;;
45466;SDS011;31212;49.734;8.490;2023-06-24T12:01:09;2.22;;;1.80;;
45466;SDS011;31212;49.734;8.490;2023-06-24T12:03:35;5.90;;;1.80;;
45466;SDS011;31212;49.734;8.490;2023-06-24T12:06:02;3.33;;;2.03;;
45466;SDS011;31212;49.734;8.490;2023-06-24T12:08:28;2.72;;;1.90;;
45466;SDS011;31212;49.734;8.490;2023-06-24T12:10:55;3.90;;;2.30;;
45466;SDS011;31212;49.734;8.490;2023-06-24T12:13:21;4.50;;;2.60;;
45466;SDS011;31212;49.734;8.490;2023-06-24T12:15:49;4.75;;;2.47;;
45466;SDS011;31212;49.734;8.490;2023-06-24T12:18:16;3.33;;;1.98;;
45466;SDS011;31212;49.734;8.490;2023-06-24T12:20:42;3.97;;;2.20;;
45466;SDS011;31212;49.734;8.490;2023-06-24T12:23:09;3.22;;;2.30;;
45466;SDS011;31212;49.734;8.490;2023-06-24T12:25:36;4.40;;;2.53;;
45466;SDS011;31212;49.734;8.490;2023-06-24T12:28:02;4.18;;;2.95;;
45466;SDS011;31212;49.734;8.490;2023-06-24T12:30:29;3.22;;;1.92;;
45466;SDS011;31212;49.734;8.490;2023-06-24T12:32:56;7.68;;;2.55;;
45466;SDS011;31212;49.734;8.490;2023-06-24T12:35:23;5.00;;;2.50;;
45466;SDS011;31212;49.734;8.490;2023-06-24T12:37:51;4.85;;;2.67;;
45466;SDS011;31212;49.734;8.490;2023-06-24T12:40:18;3.72;;;2.10;;
45466;SDS011;31212;49.734;8.490;2023-06-24T12:42:45;2.72;;;2.03;;
45466;SDS011;31212;49.734;8.490;2023-06-24T12:45:11;3.83;;;2.60;;
45466;SDS011;31212;49.734;8.490;2023-06-24T12:47:38;3.33;;;2.15;;
45466;SDS011;31212;49.734;8.490;2023-06-24T12:50:07;2.85;;;2.00;;
45466;SDS011;31212;49.734;8.490;2023-06-24T12:52:34;4.63;;;2.35;;
45466;SDS011;31212;49.734;8.490;2023-06-24T12:55:00;2.47;;;2.25;;
45466;SDS011;31212;49.734;8.490;2023-06-24T12:57:28;3.13;;;2.22;;
45466;SDS011;31212;49.734;8.490;2023-06-24T12:59:55;3.17;;;2.13;;
45466;SDS011;31212;49.734;8.490;2023-06-24T13:02:21;4.78;;;2.38;;
45466;SDS011;31212;49.734;8.490;2023-06-24T13:04:48;3.85;;;2.40;;
45466;SDS011;31212;49.734;8.490;2023-06-24T13:07:15;2.97;;;2.30;;
45466;SDS011;31212;49.734;8.490;2023-06-24T13:09:42;4.68;;;2.13;;
45466;SDS011;31212;49.734;8.490;2023-06-24T13:12:08;4.38;;;2.15;;
45466;SDS011;31212;49.734;8.490;2023-06-24T13:14:35;4.43;;;2.35;;
45466;SDS011;31212;49.734;8.490;2023-06-24T13:17:01;3.63;;;2.35;;
45466;SDS011;31212;49.734;8.490;2023-06-24T13:19:28;5.22;;;2.30;;
45466;SDS011;31212;49.734;8.490;2023-06-24T13:21:57;3.10;;;2.28;;
45466;SDS011;31212;49.734;8.490;2023-06-24T13:24:25;5.13;;;2.50;;
45466;SDS011;31212;49.734;8.490;2023-06-24T13:26:51;2.67;;;2.08;;
45466;SDS011;31212;49.734;8.490;2023-06-24T13:29:18;4.50;;;2.78;;
45466;SDS011;31212;49.734;8.490;2023-06-24T13:31:45;13.63;;;2.60;;
45466;SDS011;31212;49.734;8.490;2023-06-24T13:34:12;2.65;;;1.95;;
45466;SDS011;31212;49.734;8.490;2023-06-24T13:36:38;4.25;;;2.65;;
45466;SDS011;31212;49.734;8.490;2023-06-24T13:39:06;3.05;;;2.28;;
45466;SDS011;31212;49.734;8.490;2023-06-24T13:41:35;5.07;;;2.55;;
45466;SDS011;31212;49.734;8.490;2023-06-24T13:44:02;2.83;;;2.10;;
45466;SDS011;31212;49.734;8.490;2023-06-24T13:46:29;4.55;;;2.53;;
45466;SDS011;31212;49.734;8.490;2023-06-24T13:48:56;3.03;;;1.80;;
45466;SDS011;31212;49.734;8.490;2023-06-24T13:51:25;4.30;;;2.05;;
45466;SDS011;31212;49.734;8.490;2023-06-24T13:53:52;5.10;;;2.38;;
45466;SDS011;31212;49.734;8.490;2023-06-24T13:56:20;4.40;;;2.20;;
45466;SDS011;31212;49.734;8.490;2023-06-24T13:58:49;3.08;;;2.40;;
45466;SDS011;31212;49.734;8.490;2023-06-24T14:01:16;2.63;;;1.95;;
45466;SDS011;31212;49.734;8.490;2023-06-24T14:03:43;3.70;;;2.20;;
45466;SDS011;31212;49.734;8.490;2023-06-24T14:06:10;3.72;;;1.92;;
45466;SDS011;31212;49.734;8.490;2023-06-24T14:08:36;3.10;;;2.20;;
45466;SDS011;31212;49.734;8.490;2023-06-24T14:11:03;3.88;;;2.22;;
45466;SDS011;31212;49.734;8.490;2023-06-24T14:13:30;2.67;;;2.05;;
45466;SDS011;31212;49.734;8.490;2023-06-24T14:15:57;6.93;;;2.08;;
45466;SDS011;31212;49.734;8.490;2023-06-24T14:18:24;3.63;;;2.30;;
45466;SDS011;31212;49.734;8.490;2023-06-24T14:20:51;3.22;;;2.35;;
45466;SDS011;31212;49.734;8.490;2023-06-24T14:23:17;2.67;;;1.98;;
45466;SDS011;31212;49.734;8.490;2023-06-24T14:25:44;3.85;;;2.33;;
45466;SDS011;31212;49.734;8.490;2023-06-24T14:28:10;2.78;;;2.10;;
45466;SDS011;31212;49.734;8.490;2023-06-24T14:30:37;3.08;;;2.20;;
45466;SDS011;31212;49.734;8.490;2023-06-24T14:33:05;5.28;;;2.25;;
45466;SDS011;31212;49.734;8.490;2023-06-24T14:35:31;4.18;;;2.45;;
45466;SDS011;31212;49.734;8.490;2023-06-24T14:37:57;5.53;;;3.00;;
45466;SDS011;31212;49.734;8.490;2023-06-24T14:40:24;3.85;;;2.38;;
45466;SDS011;31212;49.734;8.490;2023-06-24T14:42:50;3.55;;;2.28;;
45466;SDS011;31212;49.734;8.490;2023-06-24T14:45:17;4.32;;;2.13;;
45466;SDS011;31212;49.734;8.490;2023-06-24T14:47:43;2.97;;;2.17;;
45466;SDS011;31212;49.734;8.490;2023-06-24T14:50:11;3.88;;;2.75;;
45466;SDS011;31212;49.734;8.490;2023-06-24T14:52:38;3.65;;;2.30;;
45466;SDS011;31212;49.734;8.490;2023-06-24T14:55:04;4.75;;;2.35;;